createdAt,value
2019-05-21T00:01:06.751Z,14.43
2019-05-21T00:06:10.725Z,13.53
2019-05-21T00:11:13.485Z,14.13
2019-05-21T00:16:16.095Z,13.95
2019-05-21T00:21:34.600Z,13.03
2019-05-21T00:26:42.176Z,12.53
2019-05-21T00:32:21.802Z,12.70
2019-05-21T00:38:01.585Z,13.15
2019-05-21T00:43:05.589Z,14.55
2019-05-21T00:48:08.395Z,12.65
2019-05-21T00:53:11.167Z,12.97
2019-05-21T00:58:13.917Z,14.55
2019-05-21T01:03:16.634Z,13.40
2019-05-21T01:08:19.381Z,13.83
2019-05-21T01:13:22.060Z,13.83
2019-05-21T01:18:25.936Z,13.83
2019-05-21T01:23:29.016Z,14.30
2019-05-21T01:28:31.948Z,14.60
2019-05-21T01:33:34.779Z,14.47
2019-05-21T01:38:37.433Z,14.55
2019-05-21T01:43:40.327Z,15.50
2019-05-21T01:48:43.225Z,15.80
2019-05-21T01:53:45.819Z,15.65
2019-05-21T01:58:48.418Z,14.93
2019-05-21T02:03:51.277Z,15.23
2019-05-21T02:08:54.280Z,15.05
2019-05-21T02:13:57.033Z,15.55
2019-05-21T02:18:59.747Z,15.13
2019-05-21T02:24:03.410Z,15.60
2019-05-21T02:29:06.064Z,15.00
2019-05-21T02:34:08.664Z,16.52
2019-05-21T02:39:11.441Z,15.53
2019-05-21T02:44:14.024Z,15.32
2019-05-21T02:49:16.725Z,17.70
2019-05-21T02:54:19.540Z,17.17
2019-05-21T02:59:22.215Z,16.73
2019-05-21T03:04:24.967Z,19.07
2019-05-21T03:09:29.834Z,17.35
2019-05-21T03:14:32.609Z,16.03
2019-05-21T03:19:35.280Z,16.57
2019-05-21T03:24:38.089Z,16.90
2019-05-21T03:29:40.756Z,16.27
2019-05-21T03:34:43.480Z,16.02
2019-05-21T03:39:46.323Z,16.37
2019-05-21T03:44:59.602Z,15.83
2019-05-21T03:49:53.425Z,15.38
2019-05-21T03:54:56.201Z,15.13
2019-05-21T03:59:58.933Z,15.40
2019-05-21T04:05:02.052Z,14.17
2019-05-21T04:10:13.219Z,14.33
2019-05-21T04:15:18.531Z,13.88
2019-05-21T04:20:21.380Z,13.90
2019-05-21T04:25:24.404Z,12.98
2019-05-21T04:30:27.194Z,13.45
2019-05-21T04:35:29.881Z,12.53
2019-05-21T04:40:32.611Z,12.35
2019-05-21T04:45:35.298Z,13.72
2019-05-21T04:50:38.113Z,13.00
2019-05-21T04:55:40.826Z,12.63
2019-05-21T05:00:43.573Z,13.53
2019-05-21T05:05:46.256Z,14.33
2019-05-21T05:10:49.521Z,12.70
2019-05-21T05:15:52.306Z,12.75
2019-05-21T05:20:55.011Z,12.20
2019-05-21T05:25:57.693Z,12.67
2019-05-21T05:31:00.449Z,10.48
2019-05-21T05:36:03.182Z,11.50
2019-05-21T05:41:05.850Z,11.40
2019-05-21T05:46:08.517Z,10.90
2019-05-21T05:51:11.527Z,10.53
2019-05-21T05:56:14.506Z,9.48
2019-05-21T06:01:17.338Z,8.95
2019-05-21T06:06:19.879Z,9.08
2019-05-21T06:11:22.767Z,9.60
2019-05-21T06:16:26.619Z,9.08
2019-05-21T06:21:29.444Z,8.40
2019-05-21T06:26:32.187Z,8.40
2019-05-21T06:31:35.020Z,8.55
2019-05-21T06:36:37.716Z,7.62
2019-05-21T06:41:40.552Z,8.05
2019-05-21T06:46:43.274Z,7.42
2019-05-21T06:51:45.965Z,7.42
2019-05-21T06:56:48.626Z,7.83
2019-05-21T07:01:51.358Z,8.08
2019-05-21T07:06:54.057Z,6.58
2019-05-21T07:11:56.735Z,6.90
2019-05-21T07:16:59.395Z,6.67
2019-05-21T07:22:12.108Z,6.75
2019-05-21T07:27:06.530Z,6.47
2019-05-21T07:32:09.329Z,6.92
2019-05-21T07:37:12.007Z,6.30
2019-05-21T07:42:15.808Z,6.35
2019-05-21T07:47:21.249Z,5.58
2019-05-21T07:52:24.028Z,5.05
2019-05-21T07:57:26.909Z,5.62
2019-05-21T08:02:34.283Z,5.35
2019-05-21T08:07:37.126Z,5.25
2019-05-21T08:12:40.187Z,5.60
2019-05-21T08:17:42.945Z,5.87
2019-05-21T08:22:45.677Z,5.95
2019-05-21T08:27:48.449Z,5.90
2019-05-21T08:32:51.247Z,6.28
2019-05-21T08:37:54.110Z,6.37
2019-05-21T08:42:56.838Z,5.97
2019-05-21T08:47:59.716Z,6.00
2019-05-21T08:53:02.962Z,5.90
2019-05-21T08:58:07.550Z,6.10
2019-05-21T09:03:10.587Z,5.87
2019-05-21T09:08:13.488Z,6.30
2019-05-21T09:13:17.940Z,5.75
2019-05-21T09:18:20.950Z,5.78
2019-05-21T09:23:23.585Z,6.42
2019-05-21T09:28:26.498Z,5.75
2019-05-21T09:33:31.039Z,6.85
2019-05-21T09:38:34.248Z,5.70
2019-05-21T09:43:37.323Z,6.70
2019-05-21T09:48:42.215Z,6.53
2019-05-21T09:53:44.885Z,6.08
2019-05-21T09:58:47.732Z,6.17
2019-05-21T10:03:53.443Z,5.90
2019-05-21T10:08:56.190Z,6.03
2019-05-21T10:13:58.907Z,6.47
2019-05-21T10:19:01.632Z,6.00
2019-05-21T10:24:04.612Z,6.00
2019-05-21T10:29:07.208Z,5.75
2019-05-21T10:34:12.993Z,5.22
2019-05-21T10:39:14.623Z,5.12
2019-05-21T10:44:17.353Z,5.28
2019-05-21T10:49:20.115Z,4.15
2019-05-21T10:54:22.887Z,3.77
2019-05-21T10:59:25.604Z,3.85
2019-05-21T11:04:35.825Z,4.10
2019-05-21T11:09:38.667Z,3.65
2019-05-21T11:14:42.162Z,3.08
2019-05-21T11:19:44.965Z,3.40
2019-05-21T11:24:47.636Z,4.00
2019-05-21T11:29:50.414Z,3.87
2019-05-21T11:34:52.976Z,3.40
2019-05-21T11:39:55.764Z,2.40
2019-05-21T11:44:58.528Z,2.67
2019-05-21T11:50:01.206Z,2.40
2019-05-21T11:55:16.287Z,3.17
2019-05-21T12:00:22.907Z,2.70
2019-05-21T12:05:25.881Z,2.77
2019-05-21T12:10:28.639Z,2.47
2019-05-21T12:15:32.503Z,3.10
2019-05-21T12:20:37.388Z,2.80
2019-05-21T12:25:39.915Z,3.92
2019-05-21T12:30:42.664Z,3.02
2019-05-21T12:35:45.304Z,2.58
2019-05-21T12:40:48.000Z,2.92
2019-05-21T12:45:50.769Z,2.80
2019-05-21T12:50:54.501Z,3.05
2019-05-21T12:55:57.229Z,3.37
2019-05-21T13:00:59.976Z,3.05
2019-05-21T13:06:02.851Z,3.30
2019-05-21T13:11:05.581Z,3.17
2019-05-21T13:16:08.444Z,3.37
2019-05-21T13:21:11.202Z,3.02
2019-05-21T13:26:13.887Z,3.20
2019-05-21T13:31:16.717Z,3.67
2019-05-21T13:36:19.507Z,3.60
2019-05-21T13:41:22.230Z,2.95
2019-05-21T13:46:24.853Z,3.67
2019-05-21T13:51:27.690Z,3.90
2019-05-21T13:56:31.197Z,3.37
2019-05-21T14:01:41.275Z,3.58
2019-05-21T14:06:43.550Z,3.80
2019-05-21T14:11:46.414Z,5.08
2019-05-21T14:16:50.028Z,4.12
2019-05-21T14:21:52.738Z,3.30
2019-05-21T14:26:55.483Z,2.77
2019-05-21T14:31:58.256Z,3.87
2019-05-21T14:37:00.991Z,2.77
2019-05-21T14:42:03.744Z,2.50
2019-05-21T14:47:06.388Z,2.52
2019-05-21T14:52:09.699Z,2.02
2019-05-21T14:57:12.501Z,2.20
2019-05-21T15:02:15.203Z,2.37
2019-05-21T15:07:17.930Z,2.42
2019-05-21T15:12:20.648Z,1.45
2019-05-21T15:17:23.610Z,1.90
2019-05-21T15:22:26.413Z,1.50
2019-05-21T15:27:29.164Z,1.70
2019-05-21T15:32:32.282Z,1.72
2019-05-21T15:37:38.374Z,1.70
2019-05-21T15:42:41.149Z,2.30
2019-05-21T15:47:44.010Z,2.65
2019-05-21T15:52:46.843Z,3.30
2019-05-21T15:57:49.550Z,3.85
2019-05-21T16:02:52.292Z,4.80
2019-05-21T16:07:54.957Z,4.45
2019-05-21T16:12:57.995Z,4.70
2019-05-21T16:18:00.693Z,4.80
2019-05-21T16:23:03.485Z,4.30
2019-05-21T16:28:07.296Z,5.08
2019-05-21T16:33:10.134Z,6.40
2019-05-21T16:38:13.173Z,5.50
2019-05-21T16:43:16.017Z,5.72
2019-05-21T16:48:18.722Z,5.35
2019-05-21T16:53:21.692Z,6.28
2019-05-21T16:58:24.324Z,5.65
2019-05-21T17:03:27.270Z,6.35
2019-05-21T17:08:30.980Z,5.70
2019-05-21T17:13:34.235Z,5.90
2019-05-21T17:18:37.135Z,6.95
2019-05-21T17:23:39.821Z,6.22
2019-05-21T17:28:42.480Z,6.40
2019-05-21T17:33:45.361Z,5.75
2019-05-21T17:38:48.250Z,4.95
2019-05-21T17:43:51.152Z,5.33
2019-05-21T17:48:54.076Z,6.17
2019-05-21T17:53:57.017Z,7.35
2019-05-21T17:59:05.714Z,8.25
2019-05-21T18:04:10.046Z,8.73
2019-05-21T18:09:16.935Z,9.48
2019-05-21T18:14:20.171Z,9.00
2019-05-21T18:19:24.299Z,9.63
2019-05-21T18:24:27.091Z,10.32
2019-05-21T18:29:29.822Z,9.50
2019-05-21T18:34:32.690Z,9.93
2019-05-21T18:39:37.853Z,10.63
2019-05-21T18:44:40.702Z,11.65
2019-05-21T18:49:43.549Z,10.88
2019-05-21T18:54:47.947Z,11.22
2019-05-21T18:59:50.946Z,11.90
2019-05-21T19:04:53.964Z,12.95
2019-05-21T19:10:00.372Z,13.80
2019-05-21T19:15:02.057Z,14.50
2019-05-21T19:20:09.310Z,14.90
2019-05-21T19:25:12.324Z,12.73
2019-05-21T19:30:15.557Z,13.45
2019-05-21T19:35:18.341Z,13.90
2019-05-21T19:40:21.576Z,13.83
2019-05-21T19:45:24.548Z,13.13
2019-05-21T19:50:27.386Z,13.25
2019-05-21T19:55:30.555Z,15.00
2019-05-21T20:00:35.183Z,14.20
2019-05-21T20:05:39.186Z,15.25
2019-05-21T20:10:42.616Z,15.25
2019-05-21T20:15:45.505Z,17.17
2019-05-21T20:20:50.285Z,16.80
2019-05-21T20:25:56.816Z,19.10
2019-05-21T20:31:00.603Z,22.07
2019-05-21T20:36:03.492Z,23.75
2019-05-21T20:41:06.987Z,24.87
2019-05-21T20:46:09.928Z,25.17
2019-05-21T20:51:12.681Z,26.75
2019-05-21T20:56:16.312Z,27.90
2019-05-21T21:01:19.471Z,28.85
2019-05-21T21:06:34.850Z,29.27
2019-05-21T21:11:28.731Z,27.20
2019-05-21T21:16:31.610Z,26.10
2019-05-21T21:21:35.269Z,22.67
2019-05-21T21:26:38.348Z,21.15
2019-05-21T21:31:41.077Z,21.65
2019-05-21T21:36:43.967Z,20.60
2019-05-21T21:41:47.772Z,18.23
2019-05-21T21:46:50.468Z,17.20
2019-05-21T21:51:53.363Z,16.73
2019-05-21T21:56:57.252Z,16.48
2019-05-21T22:02:09.699Z,16.48
2019-05-21T22:07:12.555Z,15.58
2019-05-21T22:12:17.863Z,17.05
2019-05-21T22:17:20.795Z,15.70
2019-05-21T22:22:23.641Z,16.40
2019-05-21T22:27:26.379Z,16.25
2019-05-21T22:32:28.972Z,18.25
2019-05-21T22:37:32.731Z,19.25
2019-05-21T22:42:35.525Z,19.12
2019-05-21T22:47:38.530Z,19.15
2019-05-21T22:52:41.476Z,19.60
2019-05-21T22:57:44.157Z,19.85
2019-05-21T23:02:47.658Z,19.95
2019-05-21T23:07:50.499Z,21.30
2019-05-21T23:12:56.689Z,22.48
2019-05-21T23:17:59.616Z,23.42
2019-05-21T23:23:07.129Z,24.47
2019-05-21T23:28:10.290Z,25.45
2019-05-21T23:33:13.828Z,25.02
2019-05-21T23:38:18.568Z,25.95
2019-05-21T23:43:21.563Z,26.52
2019-05-21T23:48:25.005Z,26.95
2019-05-21T23:53:27.800Z,27.62
2019-05-21T23:58:31.110Z,28.25
